KP59

Copper Harbor Airport

Michigan, USA
METAR KP59 261251Z AUTO 03006KT 06/05 A2969 RMK AO1 SLP055 T00610050 $
Observed Flight Rules
May-26 @ 12:51 UTC (50 minutes ago)
Wind
30° at 6 knots
Temperatures Readings
Current 6°C / 43°F
Dewpoint 5°C / 41°F
Humidity 93%
Altimeter 29.69" Hg
Pressure 1005.5 hPa
Elevation 190
METAR KP59 261251Z AUTO 03006KT 06/05 A2969 RMK AO1 SLP055 T00610050 $
Observed Flight Rules
May-26 @ 12:51 UTC
(50 minutes ago)
Wind
30° at 6 knots
Temperature Dewpoint
6°C / 43°F 5°C / 41°F
Humidity Altimeter Pressure
93% 29.69" Hg 1005.5 hPa